CSAV Rahue — A8MH2 — position and weather

sailwx.info

Track history (hours):
 
Tides and Currents Weather Stations Pressure Air Temp Water Temp Dewpoint Dewpoint Depression Visibility Wind Speed Wind Dir Waves Ship Positions

CSAV Rahue

Last reported at 2017-Dec-15 00:59 UTC. Time now 2017-Dec-16 01:27 UTC.
Position N 27°35' W 015°14'.

Length 231 m; draft 10.3 m.

Type: Ship (hazmat cat A). MMSI: 636091346.

Date/timePositionNaut miles runAvg speedWind from/ knotsBaromVisibWave heightAir tempDewpointWater temp
2017-Dec-15 00:59N 27°35' W 015°14'714.9
2017-Dec-15 00:30N 27°41' W 015°12'29 4.8
2017-Dec-14 18:26N 28°08' W 015°25'0 0.0
2017-Dec-14 17:56N 28°08' W 015°25'0 0.0
2017-Dec-14 17:29N 28°08' W 015°25'0 0.0
2017-Dec-14 16:59N 28°08' W 015°25'0 0.0
2017-Dec-14 16:29N 28°08' W 015°25'0 0.0
2017-Dec-14 15:59N 28°08' W 015°25'0 0.0
2017-Dec-14 14:59N 28°08' W 015°25'0 0.0
2017-Dec-14 14:29N 28°08' W 015°25'0 0.0
2017-Dec-14 13:59N 28°08' W 015°25'0 0.0
2017-Dec-14 13:29N 28°08' W 015°25'0 0.0
2017-Dec-14 12:59N 28°08' W 015°25'0 0.0
2017-Dec-14 12:17N 28°08' W 015°25'0 0.0
2017-Dec-14 11:59N 28°08' W 015°25'0 0.0
2017-Dec-14 11:29N 28°08' W 015°25'0 0.0
2017-Dec-14 10:59N 28°08' W 015°25'0 0.0
2017-Dec-14 10:20N 28°08' W 015°25'0 0.0
2017-Dec-14 09:50N 28°08' W 015°25'0 0.0
2017-Dec-14 09:20N 28°08' W 015°25'0 0.0
2017-Dec-14 08:53N 28°08' W 015°25'0 0.0
2017-Dec-14 08:23N 28°08' W 015°25'0 0.0
2017-Dec-14 07:50N 28°08' W 015°25'0 0.0
2017-Dec-14 07:23N 28°08' W 015°25'0 1.2
2017-Dec-14 07:00N 28°08' W 015°25'1 2.5
2017-Dec-14 06:30N 28°07' W 015°23'5 9.3
2017-Dec-14 06:00N 28°06' W 015°18'4 8.5
2017-Dec-14 05:30N 28°05' W 015°13'1 1.4
2017-Dec-14 05:00N 28°05' W 015°13'2 4.0
2017-Dec-14 04:30N 28°04' W 015°12'0 0.3
2017-Dec-14 04:00N 28°04' W 015°12'1 1.1
2017-Dec-14 03:30N 28°04' W 015°12'1 1.0
2017-Dec-14 03:00N 28°05' W 015°12'1 1.0
2017-Dec-14 02:30N 28°05' W 015°11'2 4.3
2017-Dec-14 02:01N 28°03' W 015°10'1 1.8
2017-Dec-14 01:30N 28°02' W 015°10'1 1.2
2017-Dec-14 01:00N 28°02' W 015°10'0 0.5
2017-Dec-14 00:31N 28°02' W 015°10'1 1.2
2017-Dec-14 00:00N 28°02' W 015°10'1 1.1
2017-Dec-13 23:31N 28°02' W 015°10'0 0.9
2017-Dec-13 23:01N 28°02' W 015°10'2 3.2
2017-Dec-13 22:30N 28°01' W 015°11'1 2.5
2017-Dec-13 22:01N 28°00' W 015°12'1 1.1
2017-Dec-13 21:30N 28°01' W 015°12'1 1.2
2017-Dec-13 21:01N 28°01' W 015°12'0 0.8
2017-Dec-13 20:30N 28°02' W 015°12'1 2.2
2017-Dec-13 20:01N 28°00' W 015°12'0 0.9
2017-Dec-13 19:31N 28°01' W 015°12'2 3.1
2017-Dec-13 19:00N 27°59' W 015°12'1 1.3
2017-Dec-13 18:30N 27°59' W 015°12'0 0.9
2017-Dec-13 18:00N 27°59' W 015°11'1 1.0
2017-Dec-13 17:30N 27°59' W 015°12'0 0.8
2017-Dec-13 17:00N 27°60' W 015°11'0 0.9
2017-Dec-13 16:30N 27°59' W 015°12'1 1.6
2017-Dec-13 16:00N 28°00' W 015°11'1 1.6
2017-Dec-13 15:30N 28°01' W 015°11'1 1.5
2017-Dec-13 15:00N 28°02' W 015°11'1 1.6
2017-Dec-13 14:30N 28°02' W 015°11'1 1.6
2017-Dec-13 14:00N 28°03' W 015°11'1 1.6
2017-Dec-13 13:30N 28°04' W 015°11'1 1.6
2017-Dec-13 13:00N 28°05' W 015°11'1 1.5
2017-Dec-13 12:30N 28°06' W 015°11'1 1.5
2017-Dec-13 12:01N 28°06' W 015°10'1 1.5
2017-Dec-13 11:31N 28°07' W 015°10'1 1.5
2017-Dec-13 11:01N 28°08' W 015°10'1 2.1
2017-Dec-13 10:31N 28°08' W 015°09'612.4
2017-Dec-13 10:01N 28°08' W 015°02'612.6
2017-Dec-13 09:31N 28°14' W 014°59'713.2
2017-Dec-13 09:01N 28°20' W 014°56'611.9
2017-Dec-13 08:31N 28°25' W 014°52'612.0
2017-Dec-13 08:01N 28°29' W 014°47'611.8
2017-Dec-13 07:31N 28°34' W 014°43'612.0
2017-Dec-13 07:00N 28°38' W 014°38'57613.4
2017-Dec-11 11:52N 35°31' W 006°44'513.5
2017-Dec-11 11:30N 35°34' W 006°40'713.9
2017-Dec-11 11:01N 35°39' W 006°34'815.1
2017-Dec-11 10:31N 35°45' W 006°28'815.1
2017-Dec-11 10:00N 35°51' W 006°22'25913.9
2017-Dec-10 15:23N 37°07' W 001°13'1016.1
2017-Dec-10 14:45N 37°14' W 001°04'516.0
2017-Dec-10 14:26N 37°17' W 000°59'716.1
2017-Dec-10 14:01N 37°21' W 000°52'816.1
2017-Dec-10 13:30N 37°27' W 000°45'816.0
2017-Dec-10 13:00N 37°32' W 000°37'815.7
2017-Dec-10 12:30N 37°38' W 000°31'815.8
2017-Dec-10 12:00N 37°45' W 000°26'1516.0
2017-Dec-10 11:06N 37°57' W 000°15'115.8
2017-Dec-10 11:00N 37°58' W 000°14'204 3.9
2017-Dec-08 07:11N 40°55' E 001°58'418.3
2017-Dec-08 06:59N 40°57' E 002°02'17617.2
2017-Dec-07 20:47N 43°01' E 004°49'517.8
2017-Dec-07 20:31N 43°05' E 004°54'917.6
2017-Dec-07 20:00N 43°12' E 005°01'816.8
2017-Dec-07 19:30N 43°20' E 004°58'5 9.2
2017-Dec-07 19:00N 43°24' E 004°54'3 5.6
2017-Dec-07 18:29N 43°25' E 004°50'0 0.0
2017-Dec-07 17:59N 43°25' E 004°50'0 0.0
2017-Dec-07 17:26N 43°25' E 004°50'0 0.0
2017-Dec-07 16:56N 43°25' E 004°50'0 0.0
2017-Dec-07 16:26N 43°25' E 004°50'0 0.0
2017-Dec-07 15:56N 43°25' E 004°50'0 0.0
2017-Dec-07 15:29N 43°25' E 004°50'0 0.0
2017-Dec-07 14:56N 43°25' E 004°50'0 0.0
2017-Dec-07 14:29N 43°25' E 004°50'0 0.0
2017-Dec-07 13:59N 43°25' E 004°50'0 0.0
2017-Dec-07 13:29N 43°25' E 004°50'0 0.0
2017-Dec-07 12:56N 43°25' E 004°50'0 0.0
2017-Dec-07 12:29N 43°25' E 004°50'0 0.0
2017-Dec-07 11:56N 43°25' E 004°50'0 0.0
2017-Dec-07 11:26N 43°25' E 004°50'1 1.8
2017-Dec-07 11:00N 43°25' E 004°51'510.1
2017-Dec-07 10:30N 43°23' E 004°57'3 5.8
2017-Dec-07 10:00N 43°20' E 004°59'510.1
2017-Dec-07 09:30N 43°15' E 005°01'510.3
2017-Dec-07 08:59N 43°11' E 005°06'8610.4
2017-Dec-07 00:45N 43°05' E 007°03'312.1
2017-Dec-07 00:30N 43°07' E 007°06'612.0
2017-Dec-07 00:00N 43°11' E 007°12'611.9
2017-Dec-06 23:30N 43°14' E 007°19'611.6
2017-Dec-06 22:58N 43°18' E 007°26'  
Track history (hours):
 
Tides and Currents Weather Stations Pressure Air Temp Water Temp Dewpoint Dewpoint Depression Visibility Wind Speed Wind Dir Waves Ship Positions

CSAV Rahue

Last reported at 2017-Dec-15 00:59 UTC. Time now 2017-Dec-16 01:27 UTC.
Position N 27°35' W 015°14'.

Length 231 m; draft 10.3 m.

Type: Ship (hazmat cat A). MMSI: 636091346.

Date/timePositionNaut miles runAvg speedWind from/ knotsBaromVisibWave heightAir tempDewpointWater temp
2017-Dec-15 00:59N 27°35' W 015°14'714.9
2017-Dec-15 00:30N 27°41' W 015°12'29 4.8
2017-Dec-14 18:26N 28°08' W 015°25'0 0.0
2017-Dec-14 17:56N 28°08' W 015°25'0 0.0
2017-Dec-14 17:29N 28°08' W 015°25'0 0.0
2017-Dec-14 16:59N 28°08' W 015°25'0 0.0
2017-Dec-14 16:29N 28°08' W 015°25'0 0.0
2017-Dec-14 15:59N 28°08' W 015°25'0 0.0
2017-Dec-14 14:59N 28°08' W 015°25'0 0.0
2017-Dec-14 14:29N 28°08' W 015°25'0 0.0
2017-Dec-14 13:59N 28°08' W 015°25'0 0.0
2017-Dec-14 13:29N 28°08' W 015°25'0 0.0
2017-Dec-14 12:59N 28°08' W 015°25'0 0.0
2017-Dec-14 12:17N 28°08' W 015°25'0 0.0
2017-Dec-14 11:59N 28°08' W 015°25'0 0.0
2017-Dec-14 11:29N 28°08' W 015°25'0 0.0
2017-Dec-14 10:59N 28°08' W 015°25'0 0.0
2017-Dec-14 10:20N 28°08' W 015°25'0 0.0
2017-Dec-14 09:50N 28°08' W 015°25'0 0.0
2017-Dec-14 09:20N 28°08' W 015°25'0 0.0
2017-Dec-14 08:53N 28°08' W 015°25'0 0.0
2017-Dec-14 08:23N 28°08' W 015°25'0 0.0
2017-Dec-14 07:50N 28°08' W 015°25'0 0.0
2017-Dec-14 07:23N 28°08' W 015°25'0 1.2
2017-Dec-14 07:00N 28°08' W 015°25'1 2.5
2017-Dec-14 06:30N 28°07' W 015°23'5 9.3
2017-Dec-14 06:00N 28°06' W 015°18'4 8.5
2017-Dec-14 05:30N 28°05' W 015°13'1 1.4
2017-Dec-14 05:00N 28°05' W 015°13'2 4.0
2017-Dec-14 04:30N 28°04' W 015°12'0 0.3
2017-Dec-14 04:00N 28°04' W 015°12'1 1.1
2017-Dec-14 03:30N 28°04' W 015°12'1 1.0
2017-Dec-14 03:00N 28°05' W 015°12'1 1.0
2017-Dec-14 02:30N 28°05' W 015°11'2 4.3
2017-Dec-14 02:01N 28°03' W 015°10'1 1.8
2017-Dec-14 01:30N 28°02' W 015°10'1 1.2
2017-Dec-14 01:00N 28°02' W 015°10'0 0.5
2017-Dec-14 00:31N 28°02' W 015°10'1 1.2
2017-Dec-14 00:00N 28°02' W 015°10'1 1.1
2017-Dec-13 23:31N 28°02' W 015°10'0 0.9
2017-Dec-13 23:01N 28°02' W 015°10'2 3.2
2017-Dec-13 22:30N 28°01' W 015°11'1 2.5
2017-Dec-13 22:01N 28°00' W 015°12'1 1.1
2017-Dec-13 21:30N 28°01' W 015°12'1 1.2
2017-Dec-13 21:01N 28°01' W 015°12'0 0.8
2017-Dec-13 20:30N 28°02' W 015°12'1 2.2
2017-Dec-13 20:01N 28°00' W 015°12'0 0.9
2017-Dec-13 19:31N 28°01' W 015°12'2 3.1
2017-Dec-13 19:00N 27°59' W 015°12'1 1.3
2017-Dec-13 18:30N 27°59' W 015°12'0 0.9
2017-Dec-13 18:00N 27°59' W 015°11'1 1.0
2017-Dec-13 17:30N 27°59' W 015°12'0 0.8
2017-Dec-13 17:00N 27°60' W 015°11'0 0.9
2017-Dec-13 16:30N 27°59' W 015°12'1 1.6
2017-Dec-13 16:00N 28°00' W 015°11'1 1.6
2017-Dec-13 15:30N 28°01' W 015°11'1 1.5
2017-Dec-13 15:00N 28°02' W 015°11'1 1.6
2017-Dec-13 14:30N 28°02' W 015°11'1 1.6
2017-Dec-13 14:00N 28°03' W 015°11'1 1.6
2017-Dec-13 13:30N 28°04' W 015°11'1 1.6
2017-Dec-13 13:00N 28°05' W 015°11'1 1.5
2017-Dec-13 12:30N 28°06' W 015°11'1 1.5
2017-Dec-13 12:01N 28°06' W 015°10'1 1.5
2017-Dec-13 11:31N 28°07' W 015°10'1 1.5
2017-Dec-13 11:01N 28°08' W 015°10'1 2.1
2017-Dec-13 10:31N 28°08' W 015°09'612.4
2017-Dec-13 10:01N 28°08' W 015°02'612.6
2017-Dec-13 09:31N 28°14' W 014°59'713.2
2017-Dec-13 09:01N 28°20' W 014°56'611.9
2017-Dec-13 08:31N 28°25' W 014°52'612.0
2017-Dec-13 08:01N 28°29' W 014°47'611.8
2017-Dec-13 07:31N 28°34' W 014°43'612.0
2017-Dec-13 07:00N 28°38' W 014°38'57613.4
2017-Dec-11 11:52N 35°31' W 006°44'513.5
2017-Dec-11 11:30N 35°34' W 006°40'713.9
2017-Dec-11 11:01N 35°39' W 006°34'815.1
2017-Dec-11 10:31N 35°45' W 006°28'815.1
2017-Dec-11 10:00N 35°51' W 006°22'25913.9
2017-Dec-10 15:23N 37°07' W 001°13'1016.1
2017-Dec-10 14:45N 37°14' W 001°04'516.0
2017-Dec-10 14:26N 37°17' W 000°59'716.1
2017-Dec-10 14:01N 37°21' W 000°52'816.1
2017-Dec-10 13:30N 37°27' W 000°45'816.0
2017-Dec-10 13:00N 37°32' W 000°37'815.7
2017-Dec-10 12:30N 37°38' W 000°31'815.8
2017-Dec-10 12:00N 37°45' W 000°26'1516.0
2017-Dec-10 11:06N 37°57' W 000°15'115.8
2017-Dec-10 11:00N 37°58' W 000°14'204 3.9
2017-Dec-08 07:11N 40°55' E 001°58'418.3
2017-Dec-08 06:59N 40°57' E 002°02'17617.2
2017-Dec-07 20:47N 43°01' E 004°49'517.8
2017-Dec-07 20:31N 43°05' E 004°54'917.6
2017-Dec-07 20:00N 43°12' E 005°01'816.8
2017-Dec-07 19:30N 43°20' E 004°58'5 9.2
2017-Dec-07 19:00N 43°24' E 004°54'3 5.6
2017-Dec-07 18:29N 43°25' E 004°50'0 0.0
2017-Dec-07 17:59N 43°25' E 004°50'0 0.0
2017-Dec-07 17:26N 43°25' E 004°50'0 0.0
2017-Dec-07 16:56N 43°25' E 004°50'0 0.0
2017-Dec-07 16:26N 43°25' E 004°50'0 0.0
2017-Dec-07 15:56N 43°25' E 004°50'0 0.0
2017-Dec-07 15:29N 43°25' E 004°50'0 0.0
2017-Dec-07 14:56N 43°25' E 004°50'0 0.0
2017-Dec-07 14:29N 43°25' E 004°50'0 0.0
2017-Dec-07 13:59N 43°25' E 004°50'0 0.0
2017-Dec-07 13:29N 43°25' E 004°50'0 0.0
2017-Dec-07 12:56N 43°25' E 004°50'0 0.0
2017-Dec-07 12:29N 43°25' E 004°50'0 0.0
2017-Dec-07 11:56N 43°25' E 004°50'0 0.0
2017-Dec-07 11:26N 43°25' E 004°50'1 1.8
2017-Dec-07 11:00N 43°25' E 004°51'510.1
2017-Dec-07 10:30N 43°23' E 004°57'3 5.8
2017-Dec-07 10:00N 43°20' E 004°59'510.1
2017-Dec-07 09:30N 43°15' E 005°01'510.3
2017-Dec-07 08:59N 43°11' E 005°06'8610.4
2017-Dec-07 00:45N 43°05' E 007°03'312.1
2017-Dec-07 00:30N 43°07' E 007°06'612.0
2017-Dec-07 00:00N 43°11' E 007°12'611.9
2017-Dec-06 23:30N 43°14' E 007°19'611.6
2017-Dec-06 22:58N 43°18' E 007°26'  

Dump ship's entire track history